Time;durP1;ratioP1;P1;durP2;ratioP2;P2;SDS_P1;SDS_P2;PMS_P1;PMS_P2;Temp;Humidity;BMP_temperature;BMP_pressure;BME280_temperature;BME280_humidity;BME280_pressure;Samples;Min_cycle;Max_cycle;Signal;HPM_P1;HPM_P2
2021/04/22 00:00:45;;;;;;;4.75;0.93;;;5.80;62.40;;;;;;2069939;28;20117;-85
2021/04/22 00:01:45;;;;;;;4.85;1.10;;;5.90;62.50;;;;;;2081227;28;20006;-85
2021/04/22 00:02:46;;;;;;;5.50;1.20;;;5.90;62.50;;;;;;2078264;28;20068;-85
2021/04/22 00:03:47;;;;;;;5.55;1.10;;;5.90;62.50;;;;;;2073310;28;20094;-85
2021/04/22 00:04:47;;;;;;;5.30;1.10;;;5.90;62.50;;;;;;2088822;28;20026;-85
2021/04/22 00:05:48;;;;;;;6.55;1.20;;;5.80;62.60;;;;;;2095360;28;20059;-85
2021/04/22 00:06:50;;;;;;;3.88;1.00;;;5.80;62.50;;;;;;2089010;28;20124;-85
2021/04/22 00:07:53;;;;;;;4.95;1.15;;;5.80;62.50;;;;;;2080289;28;20065;-85
2021/04/22 00:08:54;;;;;;;4.10;1.20;;;5.80;62.60;;;;;;2076056;28;20022;-85
2021/04/22 00:09:55;;;;;;;6.38;1.42;;;5.80;62.70;;;;;;2072385;28;20060;-85
2021/04/22 00:10:56;;;;;;;9.57;1.77;;;5.70;62.70;;;;;;2064292;28;20029;-85
2021/04/22 00:11:57;;;;;;;5.80;1.15;;;5.70;62.80;;;;;;2052504;28;20039;-85
2021/04/22 00:12:58;;;;;;;4.97;1.10;;;5.70;62.90;;;;;;2055903;28;20023;-86
2021/04/22 00:13:58;;;;;;;6.60;1.35;;;5.70;63.00;;;;;;2074821;28;20100;-84
2021/04/22 00:14:59;;;;;;;4.55;0.93;;;5.60;63.00;;;;;;2088469;28;20033;-86
2021/04/22 00:16:01;;;;;;;6.60;1.30;;;5.60;63.10;;;;;;2072186;28;20053;-86
2021/04/22 00:17:07;;;;;;;4.65;1.00;;;5.60;63.20;;;;;;2068557;28;20033;-85
2021/04/22 00:18:10;;;;;;;4.57;1.08;;;5.50;63.30;;;;;;2075093;28;20504;-85
2021/04/22 00:19:11;;;;;;;4.38;1.00;;;5.50;63.30;;;;;;2076098;28;20144;-85
2021/04/22 00:20:13;;;;;;;5.30;1.23;;;5.50;63.30;;;;;;2066605;28;20085;-86
2021/04/22 00:21:14;;;;;;;6.55;1.10;;;5.50;63.30;;;;;;2082083;28;20029;-86
2021/04/22 00:22:14;;;;;;;5.15;1.52;;;5.50;64.00;;;;;;2063254;28;20026;-85
2021/04/22 00:23:16;;;;;;;5.75;1.05;;;5.50;63.40;;;;;;2069427;28;20038;-85
2021/04/22 00:24:17;;;;;;;6.15;1.05;;;5.50;63.50;;;;;;2081010;28;20096;-85
2021/04/22 00:25:18;;;;;;;4.65;1.02;;;5.50;63.50;;;;;;2087080;28;20070;-86
2021/04/22 00:26:19;;;;;;;5.82;1.20;;;5.40;63.50;;;;;;2083914;28;20033;-86
2021/04/22 00:27:20;;;;;;;7.45;1.20;;;5.40;63.50;;;;;;2078280;28;20031;-86
2021/04/22 00:28:21;;;;;;;6.82;1.23;;;5.40;63.60;;;;;;2071594;28;20520;-86
2021/04/22 00:29:22;;;;;;;4.78;1.08;;;5.40;63.70;;;;;;2080199;28;20013;-85
2021/04/22 00:30:23;;;;;;;4.90;1.17;;;5.40;63.70;;;;;;2079963;28;20509;-86
2021/04/22 00:31:24;;;;;;;3.42;0.80;;;5.40;63.80;;;;;;2064026;28;20097;-85
2021/04/22 00:32:25;;;;;;;3.80;1.02;;;5.40;63.80;;;;;;2069736;28;20080;-86
2021/04/22 00:33:25;;;;;;;5.25;1.30;;;5.40;63.80;;;;;;2060727;28;20118;-85
2021/04/22 00:34:26;;;;;;;5.45;1.10;;;5.40;63.80;;;;;;2066779;28;20448;-86
2021/04/22 00:35:27;;;;;;;6.47;1.63;;;5.40;63.80;;;;;;2076235;28;20049;-85
2021/04/22 00:36:27;;;;;;;6.07;1.10;;;5.40;63.90;;;;;;2078048;28;20029;-85
2021/04/22 00:37:28;;;;;;;7.68;1.42;;;5.40;63.90;;;;;;2060761;28;20030;-86
2021/04/22 00:38:28;;;;;;;6.05;1.17;;;5.40;63.90;;;;;;2062212;28;20377;-86
2021/04/22 00:39:29;;;;;;;4.97;1.25;;;5.40;63.90;;;;;;2086855;28;20125;-85
2021/04/22 00:40:31;;;;;;;7.90;1.42;;;5.40;64.00;;;;;;2078009;28;20510;-86
2021/04/22 00:41:32;;;;;;;5.45;1.20;;;5.40;64.00;;;;;;2077712;28;20057;-86
2021/04/22 00:42:32;;;;;;;4.18;1.20;;;5.40;64.00;;;;;;2071847;28;20504;-85
2021/04/22 00:43:34;;;;;;;4.18;0.80;;;5.40;64.10;;;;;;2079087;28;20033;-86
2021/04/22 00:44:36;;;;;;;6.78;1.35;;;5.40;64.10;;;;;;2086504;28;20029;-86
2021/04/22 00:45:37;;;;;;;6.80;1.27;;;5.40;64.10;;;;;;2080088;28;20037;-86
2021/04/22 00:46:39;;;;;;;6.45;1.13;;;5.40;64.10;;;;;;2079946;28;20029;-86
2021/04/22 00:47:40;;;;;;;4.35;1.10;;;5.40;64.10;;;;;;2074583;28;20073;-85
2021/04/22 00:48:40;;;;;;;3.95;1.00;;;5.40;64.10;;;;;;2087993;28;20430;-85
2021/04/22 00:49:42;;;;;;;5.18;1.20;;;5.40;64.10;;;;;;2079054;28;20021;-86
2021/04/22 00:50:43;;;;;;;4.80;1.10;;;5.40;64.10;;;;;;2072087;28;20030;-86
2021/04/22 00:51:44;;;;;;;4.85;1.30;;;5.40;64.20;;;;;;2071683;28;20022;-86
2021/04/22 00:52:45;;;;;;;4.45;1.00;;;5.40;64.10;;;;;;2080554;28;20030;-85
2021/04/22 00:53:46;;;;;;;4.03;1.10;;;5.40;64.10;;;;;;2076894;28;20030;-85
2021/04/22 00:54:47;;;;;;;4.28;1.10;;;5.40;64.10;;;;;;2078999;28;20033;-86
2021/04/22 00:55:49;;;;;;;5.95;1.20;;;5.40;64.20;;;;;;2071987;28;20419;-84
2021/04/22 00:56:50;;;;;;;4.57;1.10;;;5.40;64.20;;;;;;2078776;28;20554;-87
2021/04/22 00:57:51;;;;;;;6.80;1.40;;;5.40;64.20;;;;;;2079992;28;20029;-85
2021/04/22 00:58:52;;;;;;;5.65;1.00;;;5.40;64.30;;;;;;2072962;28;20034;-85
2021/04/22 00:59:52;;;;;;;4.10;1.20;;;5.40;64.30;;;;;;2064534;28;20037;-86
2021/04/22 01:00:58;;;;;;;5.00;1.45;;;5.40;64.40;;;;;;2065795;28;20030;-86
2021/04/22 01:02:10;;;;;;;4.28;1.38;;;5.40;64.40;;;;;;2074180;28;20100;-86
2021/04/22 01:03:11;;;;;;;3.70;1.00;;;5.40;64.40;;;;;;2081293;28;20095;-86
2021/04/22 01:04:12;;;;;;;3.83;0.88;;;5.40;64.40;;;;;;2077676;28;20017;-86
2021/04/22 01:05:31;;;;;;;4.75;1.20;;;5.40;64.40;;;;;;2069493;28;20030;-86
2021/04/22 01:06:31;;;;;;;6.80;1.13;;;5.40;64.50;;;;;;2074917;28;20033;-86
2021/04/22 01:07:32;;;;;;;6.80;1.42;;;5.40;64.50;;;;;;2077648;28;20396;-86
2021/04/22 01:08:33;;;;;;;5.63;1.52;;;5.40;65.10;;;;;;2078631;28;20036;-86
2021/04/22 01:09:33;;;;;;;3.72;1.00;;;5.40;64.50;;;;;;2076536;28;20536;-86
2021/04/22 01:10:34;;;;;;;5.40;1.05;;;5.40;64.50;;;;;;2081625;28;20041;-86
2021/04/22 01:11:35;;;;;;;4.65;1.20;;;5.40;64.50;;;;;;2083816;28;20026;-86
2021/04/22 01:12:36;;;;;;;4.55;1.35;;;5.40;64.50;;;;;;2088755;28;20507;-86
2021/04/22 01:13:36;;;;;;;5.93;1.55;;;5.40;64.60;;;;;;2074165;28;20432;-86
2021/04/22 01:14:39;;;;;;;4.60;1.08;;;5.40;64.60;;;;;;2057298;28;20041;-85
2021/04/22 01:15:39;;;;;;;5.38;1.25;;;5.40;64.70;;;;;;2065582;28;20489;-85
2021/04/22 01:16:41;;;;;;;4.13;1.08;;;5.40;64.70;;;;;;2071848;28;20578;-85
2021/04/22 01:17:42;;;;;;;4.57;1.10;;;5.40;64.70;;;;;;2064656;28;20041;-85
2021/04/22 01:18:43;;;;;;;6.57;1.58;;;5.40;65.30;;;;;;2073025;28;20519;-85
2021/04/22 01:19:43;;;;;;;6.75;1.15;;;5.40;64.70;;;;;;2065436;28;20038;-85
2021/04/22 01:20:49;;;;;;;4.70;1.05;;;5.30;64.70;;;;;;2060821;28;20030;-85
2021/04/22 01:21:53;;;;;;;3.10;1.00;;;5.30;64.70;;;;;;2069820;28;20026;-85
2021/04/22 01:22:56;;;;;;;5.80;1.10;;;5.30;64.70;;;;;;2072245;28;20060;-85
2021/04/22 01:23:57;;;;;;;4.68;1.30;;;5.30;64.80;;;;;;2081117;28;20033;-85
2021/04/22 01:24:58;;;;;;;7.05;1.20;;;5.30;64.80;;;;;;2080623;28;20025;-85
2021/04/22 01:25:58;;;;;;;6.47;1.33;;;5.30;64.90;;;;;;2073231;28;20034;-86
2021/04/22 01:26:59;;;;;;;5.72;1.40;;;5.30;64.90;;;;;;2073229;28;20034;-85
2021/04/22 01:28:01;;;;;;;6.88;1.38;;;5.20;65.00;;;;;;2070468;28;20033;-85
2021/04/22 01:29:02;;;;;;;4.97;1.23;;;5.20;65.00;;;;;;2069109;28;20042;-85
2021/04/22 01:30:07;;;;;;;6.28;1.38;;;5.30;65.10;;;;;;2078674;28;20057;-85
2021/04/22 01:31:08;;;;;;;4.53;1.05;;;5.20;65.10;;;;;;2082453;28;20017;-85
2021/04/22 01:32:08;;;;;;;6.05;1.30;;;5.20;65.10;;;;;;2074818;28;20066;-86
2021/04/22 01:33:10;;;;;;;4.68;1.08;;;5.20;65.10;;;;;;2085816;28;20116;-86
2021/04/22 01:34:11;;;;;;;5.45;1.60;;;5.20;65.10;;;;;;2082775;28;20120;-85
2021/04/22 01:35:15;;;;;;;4.05;1.10;;;5.20;65.10;;;;;;2086817;28;20029;-85
2021/04/22 01:36:15;;;;;;;4.93;1.35;;;5.20;65.20;;;;;;2077313;28;20500;-85
2021/04/22 01:37:16;;;;;;;6.45;1.10;;;5.20;65.20;;;;;;2063426;28;20054;-86
2021/04/22 01:38:17;;;;;;;6.90;1.27;;;5.20;65.30;;;;;;2064082;28;20046;-86
2021/04/22 01:39:18;;;;;;;5.00;1.30;;;5.10;65.30;;;;;;2070959;28;20096;-86
2021/04/22 01:40:19;;;;;;;4.82;1.30;;;5.10;65.40;;;;;;2056964;28;20038;-85
2021/04/22 01:41:20;;;;;;;7.07;1.20;;;5.10;65.40;;;;;;2063720;28;20365;-86
2021/04/22 01:42:21;;;;;;;5.90;1.33;;;5.10;65.50;;;;;;2079182;28;20440;-86
2021/04/22 01:43:21;;;;;;;4.43;1.20;;;5.10;65.60;;;;;;2072727;28;20488;-86
2021/04/22 01:44:22;;;;;;;5.38;1.35;;;5.10;65.60;;;;;;2073024;28;20072;-86
2021/04/22 01:45:23;;;;;;;6.28;1.10;;;5.10;65.60;;;;;;2068367;28;20031;-86
2021/04/22 01:46:24;;;;;;;3.42;0.98;;;5.10;65.70;;;;;;2069917;28;20076;-86
2021/04/22 01:47:25;;;;;;;5.25;1.30;;;5.10;65.80;;;;;;2077655;28;20028;-85
2021/04/22 01:48:27;;;;;;;4.07;1.00;;;5.10;65.80;;;;;;2074912;28;20057;-86
2021/04/22 01:49:28;;;;;;;4.95;1.00;;;5.10;65.80;;;;;;2085499;28;20052;-86
2021/04/22 01:50:31;;;;;;;4.00;1.10;;;5.10;65.90;;;;;;2069501;28;20025;-87
2021/04/22 01:51:31;;;;;;;6.63;1.33;;;5.10;65.90;;;;;;2073377;28;20110;-86
2021/04/22 01:52:32;;;;;;;4.65;1.10;;;5.10;65.90;;;;;;2089812;28;20044;-87
2021/04/22 01:53:33;;;;;;;6.20;1.25;;;5.10;66.00;;;;;;2079194;28;20025;-86
2021/04/22 01:54:33;;;;;;;4.70;1.10;;;5.10;66.00;;;;;;2073026;28;20029;-86
2021/04/22 01:55:43;;;;;;;3.88;1.05;;;5.10;66.10;;;;;;2087966;28;20230;-86
2021/04/22 01:56:44;;;;;;;3.97;1.30;;;5.00;66.10;;;;;;2072531;28;20121;-86
2021/04/22 01:57:45;;;;;;;6.63;1.55;;;5.00;66.10;;;;;;2078863;28;20392;-85
2021/04/22 01:58:46;;;;;;;5.95;1.20;;;5.00;66.20;;;;;;2085773;28;20111;-86
2021/04/22 01:59:46;;;;;;;4.35;1.00;;;5.00;66.20;;;;;;2078497;28;20042;-85
2021/04/22 02:00:50;;;;;;;4.50;1.00;;;5.00;66.30;;;;;;2063972;28;20034;-85
2021/04/22 02:01:51;;;;;;;4.40;1.20;;;5.00;66.30;;;;;;2080606;28;20018;-85
2021/04/22 02:02:52;;;;;;;6.18;1.20;;;5.00;66.30;;;;;;2082474;28;20376;-86
2021/04/22 02:03:52;;;;;;;3.78;1.00;;;5.00;66.40;;;;;;2083745;28;20037;-85
2021/04/22 02:04:53;;;;;;;4.95;1.25;;;4.90;66.40;;;;;;2079083;28;20043;-85
2021/04/22 02:05:55;;;;;;;6.88;1.20;;;4.90;67.00;;;;;;2072165;28;20022;-86
2021/04/22 02:06:56;;;;;;;5.15;1.30;;;5.00;66.50;;;;;;2087398;28;20091;-86
2021/04/22 02:07:57;;;;;;;5.53;1.20;;;4.90;66.50;;;;;;2077005;28;20482;-86
2021/04/22 02:08:57;;;;;;;4.88;1.20;;;4.90;66.60;;;;;;2080162;28;20025;-85
2021/04/22 02:09:58;;;;;;;6.38;1.58;;;5.00;66.80;;;;;;2089034;28;20060;-86
2021/04/22 02:10:59;;;;;;;4.60;1.25;;;4.90;67.40;;;;;;2080943;28;20372;-86
2021/04/22 02:12:00;;;;;;;6.40;1.63;;;4.90;66.80;;;;;;2072774;28;20042;-86
2021/04/22 02:13:01;;;;;;;4.82;1.10;;;4.90;66.80;;;;;;2070490;28;20034;-86
2021/04/22 02:14:02;;;;;;;3.92;1.30;;;4.90;66.90;;;;;;2072665;28;20030;-86
2021/04/22 02:15:09;;;;;;;5.80;1.38;;;4.90;67.00;;;;;;2072761;28;20029;-86
2021/04/22 02:16:10;;;;;;;7.28;1.23;;;4.90;67.00;;;;;;2072754;28;20030;-86
2021/04/22 02:17:10;;;;;;;5.78;1.27;;;4.90;66.90;;;;;;2066406;28;20077;-85
2021/04/22 02:18:11;;;;;;;5.28;1.15;;;4.90;66.90;;;;;;2066673;28;20029;-84
2021/04/22 02:19:13;;;;;;;6.35;1.23;;;4.90;67.00;;;;;;2079430;28;20018;-85
2021/04/22 02:20:15;;;;;;;4.45;1.20;;;4.90;67.00;;;;;;2082946;28;20018;-84
2021/04/22 02:21:16;;;;;;;3.67;1.10;;;4.90;67.00;;;;;;2088627;28;20021;-84
2021/04/22 02:22:17;;;;;;;4.05;1.10;;;4.90;67.10;;;;;;2071025;28;20500;-85
2021/04/22 02:23:20;;;;;;;5.47;1.33;;;4.90;67.10;;;;;;2062344;28;20065;-85
2021/04/22 02:24:21;;;;;;;5.82;1.48;;;4.90;67.20;;;;;;2077810;28;20380;-85
2021/04/22 02:25:25;;;;;;;4.55;1.20;;;4.90;67.20;;;;;;2080981;28;20037;-85
2021/04/22 02:26:25;;;;;;;5.25;1.48;;;4.80;67.30;;;;;;2086008;28;20514;-85
2021/04/22 02:27:26;;;;;;;5.47;1.63;;;4.80;67.40;;;;;;2081520;28;20024;-85
2021/04/22 02:28:26;;;;;;;4.50;1.27;;;4.80;67.40;;;;;;2070939;28;20044;-85
2021/04/22 02:29:27;;;;;;;7.50;1.63;;;4.80;67.40;;;;;;2063816;28;20069;-85
2021/04/22 02:30:33;;;;;;;5.00;1.13;;;4.80;67.40;;;;;;2077482;28;20037;-85
2021/04/22 02:31:33;;;;;;;5.07;1.23;;;4.80;67.50;;;;;;2082084;28;20088;-85
2021/04/22 02:32:35;;;;;;;6.70;1.52;;;4.80;67.50;;;;;;2071647;28;20298;-85
2021/04/22 02:33:35;;;;;;;5.07;1.02;;;4.70;67.40;;;;;;2063985;28;20061;-85
2021/04/22 02:34:36;;;;;;;4.53;1.10;;;4.70;67.50;;;;;;2071538;28;20128;-85
2021/04/22 02:35:39;;;;;;;4.78;1.20;;;4.70;67.50;;;;;;2063255;28;20065;-84
2021/04/22 02:36:40;;;;;;;6.53;1.50;;;4.70;67.60;;;;;;2064521;28;20503;-84
2021/04/22 02:37:41;;;;;;;4.20;1.10;;;4.70;67.60;;;;;;2071732;28;20022;-85
2021/04/22 02:38:42;;;;;;;4.63;1.30;;;4.70;67.70;;;;;;2068646;28;20034;-84
2021/04/22 02:39:42;;;;;;;6.05;1.33;;;4.70;67.80;;;;;;2063811;28;20026;-85
2021/04/22 02:40:45;;;;;;;4.72;1.30;;;4.70;67.80;;;;;;2063898;28;20279;-85
2021/04/22 02:41:45;;;;;;;5.95;1.20;;;4.70;67.80;;;;;;2080405;28;20033;-86
2021/04/22 02:42:46;;;;;;;4.78;1.00;;;4.70;67.70;;;;;;2078086;28;20025;-85
2021/04/22 02:43:47;;;;;;;5.03;0.98;;;4.70;67.70;;;;;;2080756;28;20075;-85
2021/04/22 02:44:47;;;;;;;4.63;1.38;;;4.70;67.80;;;;;;2088713;28;20025;-85
2021/04/22 02:45:54;;;;;;;2.75;1.00;;;4.70;67.80;;;;;;2088806;28;20040;-85
2021/04/22 02:46:54;;;;;;;5.47;1.13;;;4.70;67.90;;;;;;2080976;28;20022;-85
2021/04/22 02:47:56;;;;;;;6.63;1.73;;;4.70;68.00;;;;;;2070675;28;20495;-85
2021/04/22 02:48:56;;;;;;;4.63;1.05;;;4.70;68.00;;;;;;2079736;28;20426;-85
2021/04/22 02:49:57;;;;;;;5.97;1.40;;;4.70;68.10;;;;;;2066119;28;20120;-85
2021/04/22 02:50:58;;;;;;;4.75;1.17;;;4.70;68.10;;;;;;2054079;28;20081;-85
2021/04/22 02:51:59;;;;;;;6.93;1.35;;;4.60;68.10;;;;;;2062261;28;20038;-85
2021/04/22 02:53:01;;;;;;;4.97;1.20;;;4.60;68.10;;;;;;2056485;28;20078;-85
2021/04/22 02:54:04;;;;;;;4.72;1.25;;;4.60;68.10;;;;;;2073288;28;20394;-85
2021/04/22 02:55:05;;;;;;;6.47;1.40;;;4.70;68.10;;;;;;2075338;28;20025;-85
2021/04/22 02:56:06;;;;;;;4.13;1.17;;;4.70;68.10;;;;;;2068264;28;20029;-85
2021/04/22 02:57:07;;;;;;;3.67;1.23;;;4.70;68.00;;;;;;2076193;28;20022;-85
2021/04/22 02:58:09;;;;;;;5.20;1.30;;;4.70;68.00;;;;;;2071874;28;20034;-85
2021/04/22 02:59:09;;;;;;;5.85;1.27;;;4.70;68.10;;;;;;2069914;28;20026;-85
2021/04/22 03:00:14;;;;;;;5.03;1.27;;;4.70;68.00;;;;;;2082610;28;20112;-85
2021/04/22 03:01:15;;;;;;;3.42;1.10;;;4.70;68.10;;;;;;2084288;28;20104;-86
2021/04/22 03:02:15;;;;;;;3.03;1.00;;;4.70;68.00;;;;;;2069313;28;20027;-85
2021/04/22 03:03:16;;;;;;;5.97;1.38;;;4.70;68.10;;;;;;2064229;28;20026;-86
2021/04/22 03:04:17;;;;;;;8.40;1.35;;;4.70;68.20;;;;;;2080627;28;20041;-85
2021/04/22 03:05:18;;;;;;;4.15;1.30;;;4.60;68.10;;;;;;2069344;28;20073;-86
2021/04/22 03:06:19;;;;;;;4.65;1.25;;;4.70;68.30;;;;;;2071944;28;20038;-86
2021/04/22 03:07:19;;;;;;;5.18;1.25;;;4.60;68.20;;;;;;2071998;28;20057;-85
2021/04/22 03:08:20;;;;;;;3.63;1.20;;;4.60;68.20;;;;;;2064905;28;20039;-85
2021/04/22 03:09:21;;;;;;;5.07;1.10;;;4.60;68.30;;;;;;2066759;28;20054;-85
2021/04/22 03:10:24;;;;;;;5.00;1.30;;;4.60;68.30;;;;;;2071391;28;20383;-85
2021/04/22 03:11:24;;;;;;;5.32;1.17;;;4.60;68.40;;;;;;2080064;28;20026;-85
2021/04/22 03:12:26;;;;;;;5.45;1.27;;;4.60;68.40;;;;;;2072144;28;20057;-85
2021/04/22 03:13:26;;;;;;;5.53;1.35;;;4.60;68.30;;;;;;2072210;28;20060;-85
2021/04/22 03:14:27;;;;;;;5.53;1.30;;;4.60;68.30;;;;;;2088551;28;20083;-85
2021/04/22 03:15:28;;;;;;;4.32;1.30;;;4.70;68.40;;;;;;2078714;28;20025;-85
2021/04/22 03:16:29;;;;;;;3.75;1.00;;;4.60;68.30;;;;;;2072445;28;20567;-85
2021/04/22 03:17:30;;;;;;;5.82;1.42;;;4.70;68.40;;;;;;2079804;28;20392;-85
2021/04/22 03:18:30;;;;;;;4.38;1.35;;;4.70;68.40;;;;;;2072605;28;20041;-85
2021/04/22 03:19:31;;;;;;;3.13;1.10;;;4.70;68.30;;;;;;2076841;28;20061;-85
2021/04/22 03:20:32;;;;;;;4.32;1.20;;;4.70;68.30;;;;;;2088019;28;20021;-86
2021/04/22 03:21:32;;;;;;;3.80;1.30;;;4.70;68.30;;;;;;2072030;28;20022;-86
2021/04/22 03:22:33;;;;;;;4.60;1.50;;;4.70;68.30;;;;;;2055649;28;20031;-86
2021/04/22 03:23:34;;;;;;;5.25;1.42;;;4.70;68.30;;;;;;2063116;28;20457;-86
2021/04/22 03:24:35;;;;;;;4.43;1.48;;;4.70;68.30;;;;;;2070640;28;20034;-86
2021/04/22 03:25:35;;;;;;;4.63;1.23;;;4.60;68.30;;;;;;2069851;28;20177;-86
2021/04/22 03:26:36;;;;;;;4.43;1.25;;;4.70;68.40;;;;;;2065148;28;20137;-86
2021/04/22 03:27:37;;;;;;;3.28;1.15;;;4.70;68.40;;;;;;2064289;28;20030;-86
2021/04/22 03:28:38;;;;;;;5.28;1.20;;;4.70;68.40;;;;;;2071215;28;20490;-86
2021/04/22 03:29:39;;;;;;;4.65;1.33;;;4.70;68.40;;;;;;2084474;28;20100;-86
2021/04/22 03:30:39;;;;;;;4.05;1.30;;;4.70;68.40;;;;;;2072503;28;20041;-86
2021/04/22 03:31:40;;;;;;;7.20;1.75;;;4.70;68.50;;;;;;2071606;28;20069;-86
2021/04/22 03:32:41;;;;;;;5.90;1.17;;;4.70;68.50;;;;;;2072451;28;20128;-86
2021/04/22 03:33:42;;;;;;;6.75;1.27;;;4.70;68.50;;;;;;2080461;28;20037;-86
2021/04/22 03:34:42;;;;;;;5.43;1.25;;;4.70;68.50;;;;;;2071398;28;20036;-86
2021/04/22 03:35:43;;;;;;;4.88;1.40;;;4.70;68.50;;;;;;2071095;28;20022;-86
2021/04/22 03:36:43;;;;;;;6.35;1.40;;;4.70;68.50;;;;;;2089292;28;20039;-86
2021/04/22 03:37:44;;;;;;;6.40;1.40;;;4.70;68.60;;;;;;2078890;28;20036;-86
2021/04/22 03:38:45;;;;;;;5.20;1.40;;;4.70;68.50;;;;;;2071641;28;20022;-86
2021/04/22 03:39:46;;;;;;;4.40;1.38;;;4.70;68.50;;;;;;2076325;28;20544;-86
2021/04/22 03:40:46;;;;;;;3.67;1.23;;;4.70;68.50;;;;;;2072206;28;20512;-86
2021/04/22 03:41:47;;;;;;;5.72;1.30;;;4.70;68.60;;;;;;2072581;28;20060;-86
2021/04/22 03:42:48;;;;;;;6.72;1.70;;;4.60;68.50;;;;;;2075650;28;20107;-86
2021/04/22 03:43:49;;;;;;;4.90;1.63;;;4.60;68.60;;;;;;2078593;28;20043;-86
2021/04/22 03:44:50;;;;;;;5.93;1.40;;;4.60;68.60;;;;;;2081875;28;20030;-86
2021/04/22 03:45:50;;;;;;;6.40;1.33;;;4.60;68.60;;;;;;2068155;28;20400;-86
2021/04/22 03:46:51;;;;;;;4.18;1.10;;;4.60;68.70;;;;;;2076736;28;20027;-86
2021/04/22 03:47:52;;;;;;;4.18;1.20;;;4.60;68.80;;;;;;2087297;28;20049;-85
2021/04/22 03:48:53;;;;;;;3.97;1.45;;;4.60;68.80;;;;;;2091060;28;20014;-85
2021/04/22 03:49:53;;;;;;;4.63;1.27;;;4.60;68.90;;;;;;2082491;28;20052;-86
2021/04/22 03:50:54;;;;;;;5.97;1.38;;;4.60;68.80;;;;;;2075975;28;20006;-85
2021/04/22 03:51:55;;;;;;;3.47;1.40;;;4.60;68.80;;;;;;2082329;28;20078;-86
2021/04/22 03:52:55;;;;;;;4.57;1.25;;;4.60;68.80;;;;;;2082544;28;20061;-86
2021/04/22 03:53:57;;;;;;;4.88;1.30;;;4.50;68.80;;;;;;2082082;28;20034;-86
2021/04/22 03:54:57;;;;;;;4.43;1.33;;;4.50;68.80;;;;;;2068758;28;20093;-86
2021/04/22 03:55:58;;;;;;;3.83;1.20;;;4.50;68.80;;;;;;2076851;28;20034;-86
2021/04/22 03:57:00;;;;;;;5.35;1.42;;;4.50;68.80;;;;;;2069833;28;20472;-86
2021/04/22 03:58:01;;;;;;;3.70;1.20;;;4.50;68.80;;;;;;2077306;28;20053;-86
2021/04/22 03:59:02;;;;;;;5.72;1.70;;;4.50;68.80;;;;;;2074061;28;20010;-85
2021/04/22 04:00:05;;;;;;;4.65;1.10;;;4.60;68.80;;;;;;2081193;28;20030;-86
2021/04/22 04:01:06;;;;;;;4.93;1.20;;;4.60;68.80;;;;;;2094951;28;20044;-86
2021/04/22 04:02:07;;;;;;;5.65;1.00;;;4.60;68.80;;;;;;2086899;28;20036;-86
2021/04/22 04:03:07;;;;;;;5.10;1.52;;;4.60;68.80;;;;;;2079686;28;20029;-86
2021/04/22 04:04:08;;;;;;;7.35;1.48;;;4.60;68.80;;;;;;2077978;28;20026;-86
2021/04/22 04:05:09;;;;;;;7.00;1.77;;;4.50;68.80;;;;;;2061190;28;20034;-86
2021/04/22 04:06:10;;;;;;;5.38;1.35;;;4.50;68.80;;;;;;2068716;28;20116;-85
2021/04/22 04:07:10;;;;;;;6.40;1.42;;;4.50;68.80;;;;;;2067366;28;20481;-86
2021/04/22 04:08:11;;;;;;;5.38;1.30;;;4.50;68.80;;;;;;2059636;28;20042;-86
2021/04/22 04:09:12;;;;;;;5.13;1.27;;;4.50;68.80;;;;;;2074637;28;20475;-85
2021/04/22 04:10:13;;;;;;;4.88;0.90;;;4.50;68.80;;;;;;2064830;28;20502;-86
2021/04/22 04:11:14;;;;;;;5.53;1.17;;;4.60;68.80;;;;;;2060650;28;20018;-85
2021/04/22 04:12:14;;;;;;;6.50;1.52;;;4.60;68.80;;;;;;2061168;28;20070;-86
2021/04/22 04:13:15;;;;;;;4.57;1.48;;;4.60;68.70;;;;;;2079186;28;20073;-86
2021/04/22 04:14:15;;;;;;;4.18;1.20;;;4.60;68.70;;;;;;2086972;28;20124;-86
2021/04/22 04:15:17;;;;;;;5.38;1.35;;;4.60;68.70;;;;;;2075536;28;20026;-85
2021/04/22 04:16:17;;;;;;;5.18;1.70;;;4.60;68.60;;;;;;2083998;28;20033;-85
2021/04/22 04:17:18;;;;;;;4.18;1.20;;;4.60;68.60;;;;;;2083672;28;20021;-85
2021/04/22 04:18:20;;;;;;;5.80;1.10;;;4.60;68.60;;;;;;2083694;28;20340;-85
2021/04/22 04:19:20;;;;;;;7.07;1.50;;;4.60;68.50;;;;;;2095867;28;20021;-86
2021/04/22 04:20:21;;;;;;;4.72;1.00;;;4.60;68.50;;;;;;2089711;28;20061;-85
2021/04/22 04:21:22;;;;;;;4.47;1.23;;;4.60;69.00;;;;;;2081432;28;20037;-86
2021/04/22 04:22:23;;;;;;;4.63;1.20;;;4.60;68.40;;;;;;2080569;28;20021;-85
2021/04/22 04:23:25;;;;;;;5.80;1.10;;;4.70;68.40;;;;;;2088732;28;20014;-86
2021/04/22 04:24:25;;;;;;;8.20;1.55;;;4.70;68.30;;;;;;2081675;28;20076;-86
2021/04/22 04:25:26;;;;;;;4.20;1.40;;;4.60;68.30;;;;;;2082157;28;20514;-86
2021/04/22 04:26:27;;;;;;;4.32;1.50;;;4.60;68.20;;;;;;2090436;28;20393;-84
2021/04/22 04:27:27;;;;;;;3.47;1.10;;;4.70;68.30;;;;;;2081582;28;20049;-85
2021/04/22 04:28:28;;;;;;;4.00;1.33;;;4.70;68.20;;;;;;2085940;28;20099;-85
2021/04/22 04:29:29;;;;;;;4.63;0.85;;;4.70;68.20;;;;;;2083467;28;20040;-85
2021/04/22 04:30:29;;;;;;;4.78;1.05;;;4.70;68.20;;;;;;2074305;28;20029;-85
2021/04/22 04:31:30;;;;;;;5.07;1.25;;;4.70;68.70;;;;;;2064004;28;20404;-86
2021/04/22 04:32:31;;;;;;;2.63;0.80;;;4.70;68.10;;;;;;2053737;28;20433;-85
2021/04/22 04:33:32;;;;;;;4.43;1.00;;;4.70;68.00;;;;;;2071956;28;20030;-85
2021/04/22 04:34:33;;;;;;;5.45;1.38;;;4.70;67.90;;;;;;2069464;28;20030;-85
2021/04/22 04:35:33;;;;;;;5.40;1.10;;;4.80;67.90;;;;;;2080118;28;20411;-85
2021/04/22 04:36:34;;;;;;;4.03;1.38;;;4.80;67.80;;;;;;2064100;28;20030;-86
2021/04/22 04:37:35;;;;;;;3.00;0.90;;;4.80;67.80;;;;;;2064004;28;20476;-85
2021/04/22 04:38:35;;;;;;;7.00;1.17;;;4.80;67.80;;;;;;2063727;28;20038;-85
2021/04/22 04:39:36;;;;;;;6.40;1.50;;;4.70;67.60;;;;;;2079540;28;20518;-86
2021/04/22 04:40:37;;;;;;;6.75;1.73;;;4.80;67.60;;;;;;2078683;28;20075;-85
2021/04/22 04:41:37;;;;;;;4.43;1.05;;;4.80;67.50;;;;;;2066261;28;20516;-85
2021/04/22 04:42:39;;;;;;;4.25;1.10;;;4.80;67.50;;;;;;2071859;28;20192;-85
2021/04/22 04:43:40;;;;;;;4.00;0.98;;;4.80;67.40;;;;;;2077539;28;20017;-85
2021/04/22 04:44:40;;;;;;;4.93;0.90;;;4.90;67.40;;;;;;2078358;28;20036;-85
2021/04/22 04:45:41;;;;;;;3.97;1.00;;;4.80;67.40;;;;;;2071768;28;20471;-85
2021/04/22 04:46:42;;;;;;;4.22;1.05;;;4.90;67.40;;;;;;2080931;28;20021;-85
2021/04/22 04:47:43;;;;;;;5.20;0.90;;;4.90;67.30;;;;;;2076513;28;20034;-85
2021/04/22 04:48:47;;;;;;;3.40;0.98;;;4.90;67.20;;;;;;2086117;28;20134;-85
2021/04/22 04:49:47;;;;;;;5.18;1.10;;;4.90;67.20;;;;;;2082737;28;20033;-85
2021/04/22 04:50:48;;;;;;;4.80;1.00;;;4.90;67.10;;;;;;2071752;28;20451;-85
2021/04/22 04:51:49;;;;;;;5.18;0.98;;;4.90;67.10;;;;;;2063528;28;20026;-85
2021/04/22 04:52:49;;;;;;;6.63;0.90;;;5.00;67.10;;;;;;2065862;28;20053;-85
2021/04/22 04:53:51;;;;;;;3.00;0.82;;;5.00;67.00;;;;;;2067864;28;20136;-85
2021/04/22 04:54:52;;;;;;;4.90;1.20;;;5.00;66.90;;;;;;2064994;28;20100;-85
2021/04/22 04:55:52;;;;;;;3.47;0.90;;;5.00;66.80;;;;;;2061626;28;20105;-85
2021/04/22 04:56:53;;;;;;;6.63;1.00;;;5.00;66.70;;;;;;2073558;28;20488;-85
2021/04/22 04:57:54;;;;;;;5.18;1.08;;;5.10;66.60;;;;;;2062578;28;20030;-86
2021/04/22 04:58:54;;;;;;;4.85;1.20;;;5.10;66.60;;;;;;2065314;28;20034;-85
2021/04/22 04:59:55;;;;;;;5.00;1.00;;;5.10;66.50;;;;;;2065220;28;20076;-85
2021/04/22 05:00:56;;;;;;;5.88;1.02;;;5.20;66.40;;;;;;2068082;28;20036;-85
2021/04/22 05:01:56;;;;;;;4.28;1.08;;;5.20;66.40;;;;;;2074350;28;20022;-85
2021/04/22 05:02:57;;;;;;;5.57;1.40;;;5.20;66.30;;;;;;2073262;28;20045;-85
2021/04/22 05:03:58;;;;;;;4.07;0.95;;;5.30;66.30;;;;;;2065048;28;20523;-85
2021/04/22 05:04:59;;;;;;;3.38;1.13;;;5.30;66.20;;;;;;2069347;28;20412;-85
2021/04/22 05:06:00;;;;;;;6.00;1.08;;;5.30;66.10;;;;;;2076885;28;20075;-86
2021/04/22 05:07:01;;;;;;;5.70;0.90;;;5.30;66.00;;;;;;2087616;28;20029;-85
2021/04/22 05:08:02;;;;;;;4.97;0.98;;;5.40;65.90;;;;;;2074658;28;20038;-86
2021/04/22 05:09:03;;;;;;;3.17;0.80;;;5.40;65.80;;;;;;2071121;28;20029;-84
2021/04/22 05:10:06;;;;;;;5.18;1.30;;;5.40;65.70;;;;;;2071698;28;20034;-85
2021/04/22 05:11:06;;;;;;;3.92;1.05;;;5.40;65.70;;;;;;2063933;28;20113;-85
2021/04/22 05:12:08;;;;;;;3.63;0.93;;;5.50;65.70;;;;;;2077712;28;20017;-85
2021/04/22 05:13:08;;;;;;;3.20;1.00;;;5.50;65.60;;;;;;2086635;28;20029;-85
2021/04/22 05:14:09;;;;;;;4.22;0.93;;;5.50;65.60;;;;;;2080235;28;20041;-85
2021/04/22 05:15:12;;;;;;;3.15;0.90;;;5.50;65.50;;;;;;2069833;28;20066;-85
2021/04/22 05:16:14;;;;;;;2.85;0.90;;;5.60;65.50;;;;;;2072442;28;20045;-86
2021/04/22 05:17:15;;;;;;;6.43;0.90;;;5.60;65.40;;;;;;2086823;28;20082;-85
2021/04/22 05:18:16;;;;;;;3.28;0.90;;;5.60;65.40;;;;;;2078520;28;20021;-86
2021/04/22 05:19:17;;;;;;;3.72;0.98;;;5.60;65.30;;;;;;2064949;28;20045;-85
2021/04/22 05:20:18;;;;;;;4.72;1.00;;;5.70;65.30;;;;;;2059961;28;20491;-85
2021/04/22 05:21:18;;;;;;;4.65;1.00;;;5.70;65.10;;;;;;2064555;28;20045;-85
2021/04/22 05:22:19;;;;;;;3.53;0.73;;;5.70;65.00;;;;;;2073439;28;20037;-86
2021/04/22 05:23:21;;;;;;;4.15;1.17;;;5.70;65.00;;;;;;2073537;28;20116;-85